sensor_id;sensor_type;location;lat;lon;timestamp;temperature;humidity
42479;DHT22;28110;47.080;9.476;2024-01-07T00:00:42;3.00;99.90
42479;DHT22;28110;47.080;9.476;2024-01-07T00:03:08;2.90;99.90
42479;DHT22;28110;47.080;9.476;2024-01-07T00:05:36;2.90;99.90
42479;DHT22;28110;47.080;9.476;2024-01-07T00:08:02;2.90;99.90
42479;DHT22;28110;47.080;9.476;2024-01-07T00:10:28;2.90;99.90
42479;DHT22;28110;47.080;9.476;2024-01-07T00:12:53;2.90;99.90
42479;DHT22;28110;47.080;9.476;2024-01-07T00:15:19;2.90;99.90
42479;DHT22;28110;47.080;9.476;2024-01-07T00:17:45;2.90;99.90
42479;DHT22;28110;47.080;9.476;2024-01-07T00:20:10;2.90;99.90
42479;DHT22;28110;47.080;9.476;2024-01-07T00:22:36;2.90;99.90
42479;DHT22;28110;47.080;9.476;2024-01-07T00:25:02;2.90;99.90
42479;DHT22;28110;47.080;9.476;2024-01-07T00:27:27;2.80;99.90
42479;DHT22;28110;47.080;9.476;2024-01-07T00:29:53;2.80;99.90
42479;DHT22;28110;47.080;9.476;2024-01-07T00:32:18;2.80;99.90
42479;DHT22;28110;47.080;9.476;2024-01-07T00:34:45;2.80;99.90
42479;DHT22;28110;47.080;9.476;2024-01-07T00:37:10;2.70;99.90
42479;DHT22;28110;47.080;9.476;2024-01-07T00:39:36;2.70;99.90
42479;DHT22;28110;47.080;9.476;2024-01-07T00:42:01;2.70;99.90
42479;DHT22;28110;47.080;9.476;2024-01-07T00:44:27;2.70;99.90
42479;DHT22;28110;47.080;9.476;2024-01-07T00:46:52;2.70;99.90
42479;DHT22;28110;47.080;9.476;2024-01-07T00:49:18;2.70;99.90
42479;DHT22;28110;47.080;9.476;2024-01-07T00:51:43;2.70;99.90
42479;DHT22;28110;47.080;9.476;2024-01-07T00:54:09;2.70;99.90
42479;DHT22;28110;47.080;9.476;2024-01-07T00:56:34;2.70;99.90
42479;DHT22;28110;47.080;9.476;2024-01-07T00:59:00;2.70;99.90
42479;DHT22;28110;47.080;9.476;2024-01-07T01:01:26;2.60;99.90
42479;DHT22;28110;47.080;9.476;2024-01-07T01:03:52;2.60;99.90
42479;DHT22;28110;47.080;9.476;2024-01-07T01:06:18;2.60;99.90
42479;DHT22;28110;47.080;9.476;2024-01-07T01:08:43;2.60;99.90
42479;DHT22;28110;47.080;9.476;2024-01-07T01:11:09;2.60;99.90
42479;DHT22;28110;47.080;9.476;2024-01-07T01:13:35;2.60;99.90
42479;DHT22;28110;47.080;9.476;2024-01-07T01:16:01;2.60;99.90
42479;DHT22;28110;47.080;9.476;2024-01-07T01:18:27;2.60;99.90
42479;DHT22;28110;47.080;9.476;2024-01-07T01:20:52;2.60;99.90
42479;DHT22;28110;47.080;9.476;2024-01-07T01:23:18;2.60;99.90
42479;DHT22;28110;47.080;9.476;2024-01-07T01:25:43;2.60;99.90
42479;DHT22;28110;47.080;9.476;2024-01-07T01:28:09;2.60;99.90
42479;DHT22;28110;47.080;9.476;2024-01-07T01:30:35;2.60;99.90
42479;DHT22;28110;47.080;9.476;2024-01-07T01:33:01;2.60;99.90
42479;DHT22;28110;47.080;9.476;2024-01-07T01:35:27;2.50;99.90
42479;DHT22;28110;47.080;9.476;2024-01-07T01:37:53;2.60;99.90
42479;DHT22;28110;47.080;9.476;2024-01-07T01:40:20;2.50;99.90
42479;DHT22;28110;47.080;9.476;2024-01-07T01:42:45;2.50;99.90
42479;DHT22;28110;47.080;9.476;2024-01-07T01:45:13;2.50;99.90
42479;DHT22;28110;47.080;9.476;2024-01-07T01:47:39;2.50;99.90
42479;DHT22;28110;47.080;9.476;2024-01-07T01:50:06;2.40;99.90
42479;DHT22;28110;47.080;9.476;2024-01-07T01:52:32;2.40;99.90
42479;DHT22;28110;47.080;9.476;2024-01-07T01:54:58;2.40;99.90
42479;DHT22;28110;47.080;9.476;2024-01-07T01:57:31;2.30;99.90
42479;DHT22;28110;47.080;9.476;2024-01-07T01:59:57;2.30;99.90
42479;DHT22;28110;47.080;9.476;2024-01-07T02:02:28;2.30;99.90
42479;DHT22;28110;47.080;9.476;2024-01-07T02:04:56;2.30;99.90
42479;DHT22;28110;47.080;9.476;2024-01-07T02:07:21;2.30;99.90
42479;DHT22;28110;47.080;9.476;2024-01-07T02:09:47;2.30;99.90
42479;DHT22;28110;47.080;9.476;2024-01-07T02:12:12;2.30;99.90
42479;DHT22;28110;47.080;9.476;2024-01-07T02:14:38;2.30;99.90
42479;DHT22;28110;47.080;9.476;2024-01-07T02:17:04;2.20;99.90
42479;DHT22;28110;47.080;9.476;2024-01-07T02:19:30;2.20;99.90
42479;DHT22;28110;47.080;9.476;2024-01-07T02:21:56;2.20;99.90
42479;DHT22;28110;47.080;9.476;2024-01-07T02:24:21;2.20;99.90
42479;DHT22;28110;47.080;9.476;2024-01-07T02:26:48;2.10;99.90
42479;DHT22;28110;47.080;9.476;2024-01-07T02:29:13;2.10;99.90
42479;DHT22;28110;47.080;9.476;2024-01-07T02:31:39;2.20;99.90
42479;DHT22;28110;47.080;9.476;2024-01-07T02:34:04;2.20;99.90
42479;DHT22;28110;47.080;9.476;2024-01-07T02:36:30;2.20;99.90
42479;DHT22;28110;47.080;9.476;2024-01-07T02:38:55;2.20;99.90
42479;DHT22;28110;47.080;9.476;2024-01-07T02:41:21;2.20;99.90
42479;DHT22;28110;47.080;9.476;2024-01-07T02:43:50;2.20;99.90
42479;DHT22;28110;47.080;9.476;2024-01-07T02:46:16;2.20;99.90
42479;DHT22;28110;47.080;9.476;2024-01-07T02:48:42;2.20;99.90
42479;DHT22;28110;47.080;9.476;2024-01-07T02:51:08;2.20;99.90
42479;DHT22;28110;47.080;9.476;2024-01-07T02:53:34;2.10;99.90
42479;DHT22;28110;47.080;9.476;2024-01-07T02:56:00;2.10;99.90
42479;DHT22;28110;47.080;9.476;2024-01-07T02:58:25;2.10;99.90
42479;DHT22;28110;47.080;9.476;2024-01-07T03:00:51;2.10;99.90
42479;DHT22;28110;47.080;9.476;2024-01-07T03:03:16;2.10;99.90
42479;DHT22;28110;47.080;9.476;2024-01-07T03:05:42;2.10;99.90
42479;DHT22;28110;47.080;9.476;2024-01-07T03:08:08;2.10;99.90
42479;DHT22;28110;47.080;9.476;2024-01-07T03:10:33;2.10;99.90
42479;DHT22;28110;47.080;9.476;2024-01-07T03:13:00;2.10;99.90
42479;DHT22;28110;47.080;9.476;2024-01-07T03:15:26;2.10;99.90
42479;DHT22;28110;47.080;9.476;2024-01-07T03:17:52;2.10;99.90
42479;DHT22;28110;47.080;9.476;2024-01-07T03:20:17;2.10;99.90
42479;DHT22;28110;47.080;9.476;2024-01-07T03:22:43;2.10;99.90
42479;DHT22;28110;47.080;9.476;2024-01-07T03:25:09;2.00;99.90
42479;DHT22;28110;47.080;9.476;2024-01-07T03:27:34;2.10;99.90
42479;DHT22;28110;47.080;9.476;2024-01-07T03:30:00;2.00;99.90
42479;DHT22;28110;47.080;9.476;2024-01-07T03:32:25;2.00;99.90
42479;DHT22;28110;47.080;9.476;2024-01-07T03:34:51;2.10;99.90
42479;DHT22;28110;47.080;9.476;2024-01-07T03:37:17;2.10;99.90
42479;DHT22;28110;47.080;9.476;2024-01-07T03:39:43;2.10;99.90
42479;DHT22;28110;47.080;9.476;2024-01-07T03:42:09;2.00;99.90
42479;DHT22;28110;47.080;9.476;2024-01-07T03:44:37;2.00;99.90
42479;DHT22;28110;47.080;9.476;2024-01-07T03:47:04;2.00;99.90
42479;DHT22;28110;47.080;9.476;2024-01-07T03:49:29;2.00;99.90
42479;DHT22;28110;47.080;9.476;2024-01-07T03:51:55;2.00;99.90
42479;DHT22;28110;47.080;9.476;2024-01-07T03:54:20;2.00;99.90
42479;DHT22;28110;47.080;9.476;2024-01-07T03:56:46;2.10;99.90
42479;DHT22;28110;47.080;9.476;2024-01-07T03:59:11;2.10;99.90
42479;DHT22;28110;47.080;9.476;2024-01-07T04:01:37;2.10;99.90
42479;DHT22;28110;47.080;9.476;2024-01-07T04:04:02;2.20;99.90
42479;DHT22;28110;47.080;9.476;2024-01-07T04:06:28;2.20;99.90
42479;DHT22;28110;47.080;9.476;2024-01-07T04:08:54;2.20;99.90
42479;DHT22;28110;47.080;9.476;2024-01-07T04:11:19;2.20;99.90
42479;DHT22;28110;47.080;9.476;2024-01-07T04:13:45;2.20;99.90
42479;DHT22;28110;47.080;9.476;2024-01-07T04:16:20;2.20;99.90
42479;DHT22;28110;47.080;9.476;2024-01-07T04:18:46;2.20;99.90
42479;DHT22;28110;47.080;9.476;2024-01-07T04:21:12;2.20;99.90
42479;DHT22;28110;47.080;9.476;2024-01-07T04:23:39;2.20;99.90
42479;DHT22;28110;47.080;9.476;2024-01-07T04:26:09;2.30;99.90
42479;DHT22;28110;47.080;9.476;2024-01-07T04:28:34;2.30;99.90
42479;DHT22;28110;47.080;9.476;2024-01-07T04:31:00;2.30;99.90
42479;DHT22;28110;47.080;9.476;2024-01-07T04:33:25;2.30;99.90
42479;DHT22;28110;47.080;9.476;2024-01-07T04:35:51;2.30;99.90
42479;DHT22;28110;47.080;9.476;2024-01-07T04:38:16;2.30;99.90
42479;DHT22;28110;47.080;9.476;2024-01-07T04:40:42;2.30;99.90
42479;DHT22;28110;47.080;9.476;2024-01-07T04:43:07;2.30;99.90
42479;DHT22;28110;47.080;9.476;2024-01-07T04:45:33;2.30;99.90
42479;DHT22;28110;47.080;9.476;2024-01-07T04:47:58;2.30;99.90
42479;DHT22;28110;47.080;9.476;2024-01-07T04:50:24;2.40;99.90
42479;DHT22;28110;47.080;9.476;2024-01-07T04:52:50;2.30;99.90
42479;DHT22;28110;47.080;9.476;2024-01-07T04:55:15;2.20;99.90
42479;DHT22;28110;47.080;9.476;2024-01-07T04:57:41;2.20;99.90
42479;DHT22;28110;47.080;9.476;2024-01-07T05:00:07;2.20;99.90
42479;DHT22;28110;47.080;9.476;2024-01-07T05:02:32;2.20;99.90
42479;DHT22;28110;47.080;9.476;2024-01-07T05:04:58;2.20;99.90
42479;DHT22;28110;47.080;9.476;2024-01-07T05:07:23;2.20;99.90
42479;DHT22;28110;47.080;9.476;2024-01-07T05:09:49;2.20;99.90
42479;DHT22;28110;47.080;9.476;2024-01-07T05:12:15;2.30;99.90
42479;DHT22;28110;47.080;9.476;2024-01-07T05:14:41;2.30;99.90
42479;DHT22;28110;47.080;9.476;2024-01-07T05:17:08;2.30;99.90
42479;DHT22;28110;47.080;9.476;2024-01-07T05:19:33;2.30;99.90
42479;DHT22;28110;47.080;9.476;2024-01-07T05:21:59;2.30;99.90
42479;DHT22;28110;47.080;9.476;2024-01-07T05:24:24;2.30;99.90
42479;DHT22;28110;47.080;9.476;2024-01-07T05:26:50;2.30;99.90
42479;DHT22;28110;47.080;9.476;2024-01-07T05:29:16;2.30;99.90
42479;DHT22;28110;47.080;9.476;2024-01-07T05:31:42;2.30;99.90
42479;DHT22;28110;47.080;9.476;2024-01-07T05:34:07;2.30;99.90
42479;DHT22;28110;47.080;9.476;2024-01-07T05:36:33;2.30;99.90
42479;DHT22;28110;47.080;9.476;2024-01-07T05:38:58;2.30;99.90
42479;DHT22;28110;47.080;9.476;2024-01-07T05:41:24;2.30;99.90
42479;DHT22;28110;47.080;9.476;2024-01-07T05:43:50;2.30;99.90
42479;DHT22;28110;47.080;9.476;2024-01-07T05:46:16;2.30;99.90
42479;DHT22;28110;47.080;9.476;2024-01-07T05:48:49;2.30;99.90
42479;DHT22;28110;47.080;9.476;2024-01-07T05:51:16;2.30;99.90
42479;DHT22;28110;47.080;9.476;2024-01-07T05:53:44;2.30;99.90
42479;DHT22;28110;47.080;9.476;2024-01-07T05:56:10;2.30;99.90
42479;DHT22;28110;47.080;9.476;2024-01-07T05:58:35;2.30;99.90
42479;DHT22;28110;47.080;9.476;2024-01-07T06:01:01;2.30;99.90
42479;DHT22;28110;47.080;9.476;2024-01-07T06:03:27;2.30;99.90
42479;DHT22;28110;47.080;9.476;2024-01-07T06:05:52;2.30;99.90
42479;DHT22;28110;47.080;9.476;2024-01-07T06:08:18;2.30;99.90
42479;DHT22;28110;47.080;9.476;2024-01-07T06:10:43;2.30;99.90
42479;DHT22;28110;47.080;9.476;2024-01-07T06:13:09;2.30;99.90
42479;DHT22;28110;47.080;9.476;2024-01-07T06:15:35;2.30;99.90
42479;DHT22;28110;47.080;9.476;2024-01-07T06:18:01;2.30;99.90
42479;DHT22;28110;47.080;9.476;2024-01-07T06:20:26;2.30;99.90
42479;DHT22;28110;47.080;9.476;2024-01-07T06:22:52;2.30;99.90
42479;DHT22;28110;47.080;9.476;2024-01-07T06:25:18;2.30;99.90
42479;DHT22;28110;47.080;9.476;2024-01-07T06:27:43;2.30;99.90
42479;DHT22;28110;47.080;9.476;2024-01-07T06:30:09;2.30;99.90
42479;DHT22;28110;47.080;9.476;2024-01-07T06:32:35;2.30;99.90
42479;DHT22;28110;47.080;9.476;2024-01-07T06:35:01;2.30;99.90
42479;DHT22;28110;47.080;9.476;2024-01-07T06:37:27;2.40;99.90
42479;DHT22;28110;47.080;9.476;2024-01-07T06:39:54;2.30;99.90
42479;DHT22;28110;47.080;9.476;2024-01-07T06:42:20;2.30;99.90
42479;DHT22;28110;47.080;9.476;2024-01-07T06:44:46;2.30;99.90
42479;DHT22;28110;47.080;9.476;2024-01-07T06:47:11;2.30;99.90
42479;DHT22;28110;47.080;9.476;2024-01-07T06:49:37;2.30;99.90
42479;DHT22;28110;47.080;9.476;2024-01-07T06:52:02;2.40;99.90
42479;DHT22;28110;47.080;9.476;2024-01-07T06:54:28;2.40;99.90
42479;DHT22;28110;47.080;9.476;2024-01-07T06:56:53;2.40;99.90
42479;DHT22;28110;47.080;9.476;2024-01-07T06:59:19;2.40;99.90
42479;DHT22;28110;47.080;9.476;2024-01-07T07:01:45;2.50;99.90
42479;DHT22;28110;47.080;9.476;2024-01-07T07:04:10;2.40;99.90
42479;DHT22;28110;47.080;9.476;2024-01-07T07:06:36;2.50;99.90
42479;DHT22;28110;47.080;9.476;2024-01-07T07:09:01;2.50;99.90
42479;DHT22;28110;47.080;9.476;2024-01-07T07:11:27;2.50;99.90
42479;DHT22;28110;47.080;9.476;2024-01-07T07:13:52;2.50;99.90
42479;DHT22;28110;47.080;9.476;2024-01-07T07:16:18;2.60;99.90
42479;DHT22;28110;47.080;9.476;2024-01-07T07:18:43;2.60;99.90
42479;DHT22;28110;47.080;9.476;2024-01-07T07:21:09;2.60;99.90
42479;DHT22;28110;47.080;9.476;2024-01-07T07:23:34;2.70;99.90
42479;DHT22;28110;47.080;9.476;2024-01-07T07:26:00;2.70;99.90
42479;DHT22;28110;47.080;9.476;2024-01-07T07:28:26;2.70;99.90
42479;DHT22;28110;47.080;9.476;2024-01-07T07:30:52;2.70;99.90
42479;DHT22;28110;47.080;9.476;2024-01-07T07:33:18;2.70;99.90
42479;DHT22;28110;47.080;9.476;2024-01-07T07:35:44;2.70;99.90
42479;DHT22;28110;47.080;9.476;2024-01-07T07:38:09;2.70;99.90
42479;DHT22;28110;47.080;9.476;2024-01-07T07:40:35;2.80;99.90
42479;DHT22;28110;47.080;9.476;2024-01-07T07:43:00;2.80;99.90
42479;DHT22;28110;47.080;9.476;2024-01-07T07:45:26;2.90;99.90
42479;DHT22;28110;47.080;9.476;2024-01-07T07:47:51;2.90;99.90
42479;DHT22;28110;47.080;9.476;2024-01-07T07:50:17;2.90;99.90
42479;DHT22;28110;47.080;9.476;2024-01-07T07:52:42;2.90;99.90
42479;DHT22;28110;47.080;9.476;2024-01-07T07:55:11;2.90;99.90
42479;DHT22;28110;47.080;9.476;2024-01-07T07:57:36;2.90;99.90
42479;DHT22;28110;47.080;9.476;2024-01-07T08:00:04;2.90;99.90
42479;DHT22;28110;47.080;9.476;2024-01-07T08:02:30;2.90;99.90
42479;DHT22;28110;47.080;9.476;2024-01-07T08:04:56;2.90;99.90
42479;DHT22;28110;47.080;9.476;2024-01-07T08:07:21;2.90;99.90
42479;DHT22;28110;47.080;9.476;2024-01-07T08:09:47;2.90;99.90
42479;DHT22;28110;47.080;9.476;2024-01-07T08:12:12;3.00;99.90
42479;DHT22;28110;47.080;9.476;2024-01-07T08:14:38;3.00;99.90
42479;DHT22;28110;47.080;9.476;2024-01-07T08:17:09;3.00;99.90
42479;DHT22;28110;47.080;9.476;2024-01-07T08:19:35;3.10;99.90
42479;DHT22;28110;47.080;9.476;2024-01-07T08:22:01;3.10;99.90
42479;DHT22;28110;47.080;9.476;2024-01-07T08:24:26;3.10;99.90
42479;DHT22;28110;47.080;9.476;2024-01-07T08:26:53;3.10;99.90
42479;DHT22;28110;47.080;9.476;2024-01-07T08:29:18;3.10;99.90
42479;DHT22;28110;47.080;9.476;2024-01-07T08:31:44;3.10;99.90
42479;DHT22;28110;47.080;9.476;2024-01-07T08:34:09;3.00;99.90
42479;DHT22;28110;47.080;9.476;2024-01-07T08:36:35;3.00;99.90
42479;DHT22;28110;47.080;9.476;2024-01-07T08:39:00;3.00;99.90
42479;DHT22;28110;47.080;9.476;2024-01-07T08:41:26;2.90;99.90
42479;DHT22;28110;47.080;9.476;2024-01-07T08:43:52;2.90;99.90
42479;DHT22;28110;47.080;9.476;2024-01-07T08:46:20;2.90;99.90
42479;DHT22;28110;47.080;9.476;2024-01-07T08:48:45;2.90;99.90
42479;DHT22;28110;47.080;9.476;2024-01-07T08:51:12;3.00;99.90
42479;DHT22;28110;47.080;9.476;2024-01-07T08:53:38;3.00;99.90
42479;DHT22;28110;47.080;9.476;2024-01-07T08:56:03;3.00;99.90
42479;DHT22;28110;47.080;9.476;2024-01-07T08:58:29;3.00;99.90
42479;DHT22;28110;47.080;9.476;2024-01-07T09:00:54;3.00;99.90
42479;DHT22;28110;47.080;9.476;2024-01-07T09:03:20;3.00;99.90
42479;DHT22;28110;47.080;9.476;2024-01-07T09:05:46;3.00;99.90
42479;DHT22;28110;47.080;9.476;2024-01-07T09:08:11;3.10;99.90
42479;DHT22;28110;47.080;9.476;2024-01-07T09:10:40;3.10;99.90
42479;DHT22;28110;47.080;9.476;2024-01-07T09:13:05;3.10;99.90
42479;DHT22;28110;47.080;9.476;2024-01-07T09:15:31;3.10;99.90
42479;DHT22;28110;47.080;9.476;2024-01-07T09:17:57;3.10;99.90
42479;DHT22;28110;47.080;9.476;2024-01-07T09:20:23;3.10;99.90
42479;DHT22;28110;47.080;9.476;2024-01-07T09:22:48;3.20;99.90
42479;DHT22;28110;47.080;9.476;2024-01-07T09:25:14;3.20;99.90
42479;DHT22;28110;47.080;9.476;2024-01-07T09:27:39;3.30;99.90
42479;DHT22;28110;47.080;9.476;2024-01-07T09:30:05;3.30;99.90
42479;DHT22;28110;47.080;9.476;2024-01-07T09:32:31;3.40;99.90
42479;DHT22;28110;47.080;9.476;2024-01-07T09:34:57;3.40;99.90
42479;DHT22;28110;47.080;9.476;2024-01-07T09:37:23;3.40;99.90
42479;DHT22;28110;47.080;9.476;2024-01-07T09:39:49;3.40;99.90
42479;DHT22;28110;47.080;9.476;2024-01-07T09:42:18;3.40;99.90
42479;DHT22;28110;47.080;9.476;2024-01-07T09:44:44;3.40;99.90
42479;DHT22;28110;47.080;9.476;2024-01-07T09:47:11;3.40;99.90
42479;DHT22;28110;47.080;9.476;2024-01-07T09:49:38;3.40;99.90
42479;DHT22;28110;47.080;9.476;2024-01-07T09:52:05;3.40;99.90
42479;DHT22;28110;47.080;9.476;2024-01-07T09:54:31;3.40;99.90
42479;DHT22;28110;47.080;9.476;2024-01-07T09:57:02;3.40;99.90
42479;DHT22;28110;47.080;9.476;2024-01-07T09:59:28;3.40;99.90
42479;DHT22;28110;47.080;9.476;2024-01-07T10:01:55;3.40;99.90
42479;DHT22;28110;47.080;9.476;2024-01-07T10:04:21;3.40;99.90
42479;DHT22;28110;47.080;9.476;2024-01-07T10:06:46;3.50;99.90
42479;DHT22;28110;47.080;9.476;2024-01-07T10:09:15;3.50;99.90
42479;DHT22;28110;47.080;9.476;2024-01-07T10:11:41;3.40;99.90
42479;DHT22;28110;47.080;9.476;2024-01-07T10:14:06;3.50;99.90
42479;DHT22;28110;47.080;9.476;2024-01-07T10:16:32;3.50;99.90
42479;DHT22;28110;47.080;9.476;2024-01-07T10:18:58;3.50;99.90
42479;DHT22;28110;47.080;9.476;2024-01-07T10:21:24;3.60;99.90
42479;DHT22;28110;47.080;9.476;2024-01-07T10:23:50;3.60;99.90
42479;DHT22;28110;47.080;9.476;2024-01-07T10:26:16;3.60;99.90
42479;DHT22;28110;47.080;9.476;2024-01-07T10:28:41;3.70;99.90
42479;DHT22;28110;47.080;9.476;2024-01-07T10:31:09;3.70;99.90
42479;DHT22;28110;47.080;9.476;2024-01-07T10:33:35;3.70;99.90
42479;DHT22;28110;47.080;9.476;2024-01-07T10:36:02;3.70;99.90
42479;DHT22;28110;47.080;9.476;2024-01-07T10:38:31;3.70;99.90
42479;DHT22;28110;47.080;9.476;2024-01-07T10:40:59;3.70;99.90
42479;DHT22;28110;47.080;9.476;2024-01-07T10:43:27;3.60;99.90
42479;DHT22;28110;47.080;9.476;2024-01-07T10:45:54;3.50;99.90
42479;DHT22;28110;47.080;9.476;2024-01-07T10:48:21;3.50;99.90
42479;DHT22;28110;47.080;9.476;2024-01-07T10:50:51;3.50;99.90
42479;DHT22;28110;47.080;9.476;2024-01-07T10:53:21;3.50;99.90
42479;DHT22;28110;47.080;9.476;2024-01-07T10:55:54;3.50;99.90
42479;DHT22;28110;47.080;9.476;2024-01-07T10:58:20;3.50;99.90
42479;DHT22;28110;47.080;9.476;2024-01-07T11:00:47;3.50;99.90
42479;DHT22;28110;47.080;9.476;2024-01-07T11:03:43;3.40;99.90
42479;DHT22;28110;47.080;9.476;2024-01-07T11:09:20;3.30;99.90
42479;DHT22;28110;47.080;9.476;2024-01-07T11:11:46;3.30;99.90
42479;DHT22;28110;47.080;9.476;2024-01-07T11:17:01;3.30;99.90
42479;DHT22;28110;47.080;9.476;2024-01-07T11:19:28;3.30;99.90
42479;DHT22;28110;47.080;9.476;2024-01-07T11:22:29;3.30;99.90
42479;DHT22;28110;47.080;9.476;2024-01-07T11:24:58;3.20;99.90
42479;DHT22;28110;47.080;9.476;2024-01-07T11:27:25;3.20;99.90
42479;DHT22;28110;47.080;9.476;2024-01-07T11:30:20;3.20;99.90
42479;DHT22;28110;47.080;9.476;2024-01-07T11:32:46;3.20;99.90
42479;DHT22;28110;47.080;9.476;2024-01-07T11:35:14;3.20;99.90
42479;DHT22;28110;47.080;9.476;2024-01-07T11:37:41;3.20;99.90
42479;DHT22;28110;47.080;9.476;2024-01-07T11:40:07;3.20;99.90
42479;DHT22;28110;47.080;9.476;2024-01-07T11:42:33;3.10;99.90
42479;DHT22;28110;47.080;9.476;2024-01-07T11:44:59;3.10;99.90
42479;DHT22;28110;47.080;9.476;2024-01-07T11:47:24;3.10;99.90
42479;DHT22;28110;47.080;9.476;2024-01-07T11:49:53;3.10;99.90
42479;DHT22;28110;47.080;9.476;2024-01-07T11:52:19;3.10;99.90
42479;DHT22;28110;47.080;9.476;2024-01-07T11:54:49;3.10;99.90
42479;DHT22;28110;47.080;9.476;2024-01-07T11:57:14;3.20;99.90
42479;DHT22;28110;47.080;9.476;2024-01-07T11:59:40;3.20;99.90
42479;DHT22;28110;47.080;9.476;2024-01-07T12:02:07;3.20;99.90
42479;DHT22;28110;47.080;9.476;2024-01-07T12:04:33;3.20;99.90
42479;DHT22;28110;47.080;9.476;2024-01-07T12:06:59;3.20;99.90
42479;DHT22;28110;47.080;9.476;2024-01-07T12:09:26;3.20;99.90
42479;DHT22;28110;47.080;9.476;2024-01-07T12:11:52;3.20;99.90
42479;DHT22;28110;47.080;9.476;2024-01-07T12:14:18;3.20;99.90
42479;DHT22;28110;47.080;9.476;2024-01-07T12:16:45;3.20;99.90
42479;DHT22;28110;47.080;9.476;2024-01-07T12:19:11;3.20;99.90
42479;DHT22;28110;47.080;9.476;2024-01-07T12:21:37;3.30;99.90
42479;DHT22;28110;47.080;9.476;2024-01-07T12:24:04;3.30;99.90
42479;DHT22;28110;47.080;9.476;2024-01-07T12:26:29;3.30;99.90
42479;DHT22;28110;47.080;9.476;2024-01-07T12:28:58;3.40;99.90
42479;DHT22;28110;47.080;9.476;2024-01-07T12:31:33;3.40;99.90
42479;DHT22;28110;47.080;9.476;2024-01-07T12:33:59;3.40;99.90
42479;DHT22;28110;47.080;9.476;2024-01-07T12:36:24;3.40;99.90
42479;DHT22;28110;47.080;9.476;2024-01-07T12:38:52;3.40;99.90
42479;DHT22;28110;47.080;9.476;2024-01-07T12:41:22;3.40;99.90
42479;DHT22;28110;47.080;9.476;2024-01-07T12:43:49;3.40;99.90
42479;DHT22;28110;47.080;9.476;2024-01-07T12:46:15;3.40;99.90
42479;DHT22;28110;47.080;9.476;2024-01-07T12:48:40;3.40;99.90
42479;DHT22;28110;47.080;9.476;2024-01-07T12:51:06;3.40;99.90
42479;DHT22;28110;47.080;9.476;2024-01-07T12:53:31;3.40;99.90
42479;DHT22;28110;47.080;9.476;2024-01-07T12:55:57;3.30;99.90
42479;DHT22;28110;47.080;9.476;2024-01-07T12:58:22;3.40;99.90
42479;DHT22;28110;47.080;9.476;2024-01-07T13:00:48;3.40;99.90
42479;DHT22;28110;47.080;9.476;2024-01-07T13:03:14;3.30;99.90
42479;DHT22;28110;47.080;9.476;2024-01-07T13:05:43;3.30;99.90
42479;DHT22;28110;47.080;9.476;2024-01-07T13:08:09;3.30;99.90
42479;DHT22;28110;47.080;9.476;2024-01-07T13:10:35;3.30;99.90
42479;DHT22;28110;47.080;9.476;2024-01-07T13:13:00;3.30;99.90
42479;DHT22;28110;47.080;9.476;2024-01-07T13:15:26;3.30;99.90
42479;DHT22;28110;47.080;9.476;2024-01-07T13:17:51;3.30;99.90
42479;DHT22;28110;47.080;9.476;2024-01-07T13:20:17;3.30;99.90
42479;DHT22;28110;47.080;9.476;2024-01-07T13:22:45;3.30;99.90
42479;DHT22;28110;47.080;9.476;2024-01-07T13:25:11;3.30;99.90
42479;DHT22;28110;47.080;9.476;2024-01-07T13:27:37;3.30;99.90
42479;DHT22;28110;47.080;9.476;2024-01-07T13:30:03;3.20;99.90
42479;DHT22;28110;47.080;9.476;2024-01-07T13:32:29;3.20;99.90
42479;DHT22;28110;47.080;9.476;2024-01-07T13:34:55;3.20;99.90
42479;DHT22;28110;47.080;9.476;2024-01-07T13:37:20;3.20;99.90
42479;DHT22;28110;47.080;9.476;2024-01-07T13:39:47;3.20;99.90
42479;DHT22;28110;47.080;9.476;2024-01-07T13:42:14;3.20;99.90
42479;DHT22;28110;47.080;9.476;2024-01-07T13:44:40;3.10;99.90
42479;DHT22;28110;47.080;9.476;2024-01-07T13:47:12;3.10;99.90
42479;DHT22;28110;47.080;9.476;2024-01-07T13:49:40;3.10;99.90
42479;DHT22;28110;47.080;9.476;2024-01-07T13:52:05;3.10;99.90
42479;DHT22;28110;47.080;9.476;2024-01-07T13:54:31;3.00;99.90
42479;DHT22;28110;47.080;9.476;2024-01-07T13:56:56;3.00;99.90
42479;DHT22;28110;47.080;9.476;2024-01-07T13:59:22;3.00;99.90
42479;DHT22;28110;47.080;9.476;2024-01-07T14:01:48;2.90;99.90
42479;DHT22;28110;47.080;9.476;2024-01-07T14:04:14;2.90;99.90
42479;DHT22;28110;47.080;9.476;2024-01-07T14:06:40;2.90;99.90
42479;DHT22;28110;47.080;9.476;2024-01-07T14:09:06;2.80;99.90
42479;DHT22;28110;47.080;9.476;2024-01-07T14:11:33;2.80;99.90
42479;DHT22;28110;47.080;9.476;2024-01-07T14:13:59;2.90;99.90
42479;DHT22;28110;47.080;9.476;2024-01-07T14:16:26;2.80;99.90
42479;DHT22;28110;47.080;9.476;2024-01-07T14:18:51;2.80;99.90
42479;DHT22;28110;47.080;9.476;2024-01-07T14:21:17;2.80;99.90
42479;DHT22;28110;47.080;9.476;2024-01-07T14:23:43;2.80;99.90
42479;DHT22;28110;47.080;9.476;2024-01-07T14:26:08;2.80;99.90
42479;DHT22;28110;47.080;9.476;2024-01-07T14:28:34;2.70;99.90
42479;DHT22;28110;47.080;9.476;2024-01-07T14:31:01;2.70;99.90
42479;DHT22;28110;47.080;9.476;2024-01-07T14:33:27;2.70;99.90
42479;DHT22;28110;47.080;9.476;2024-01-07T14:35:52;2.60;99.90
42479;DHT22;28110;47.080;9.476;2024-01-07T14:38:18;2.60;99.90
42479;DHT22;28110;47.080;9.476;2024-01-07T14:40:44;2.60;99.90
42479;DHT22;28110;47.080;9.476;2024-01-07T14:43:12;2.50;99.90
42479;DHT22;28110;47.080;9.476;2024-01-07T14:45:37;2.50;99.90
42479;DHT22;28110;47.080;9.476;2024-01-07T14:48:03;2.50;99.90
42479;DHT22;28110;47.080;9.476;2024-01-07T14:50:29;2.50;99.90
42479;DHT22;28110;47.080;9.476;2024-01-07T14:52:55;2.50;99.90
42479;DHT22;28110;47.080;9.476;2024-01-07T14:55:20;2.50;99.90
42479;DHT22;28110;47.080;9.476;2024-01-07T14:57:46;2.40;99.90
42479;DHT22;28110;47.080;9.476;2024-01-07T15:00:12;2.40;99.90
42479;DHT22;28110;47.080;9.476;2024-01-07T15:02:38;2.40;99.90
42479;DHT22;28110;47.080;9.476;2024-01-07T15:05:04;2.40;99.90
42479;DHT22;28110;47.080;9.476;2024-01-07T15:07:30;2.40;99.90
42479;DHT22;28110;47.080;9.476;2024-01-07T15:09:56;2.30;99.90
42479;DHT22;28110;47.080;9.476;2024-01-07T15:12:22;2.30;99.90
42479;DHT22;28110;47.080;9.476;2024-01-07T15:14:48;2.30;99.90
42479;DHT22;28110;47.080;9.476;2024-01-07T15:17:13;2.30;99.90
42479;DHT22;28110;47.080;9.476;2024-01-07T15:19:42;2.20;99.90
42479;DHT22;28110;47.080;9.476;2024-01-07T15:22:07;2.20;99.90
42479;DHT22;28110;47.080;9.476;2024-01-07T15:24:33;2.20;99.90
42479;DHT22;28110;47.080;9.476;2024-01-07T15:26:58;2.20;99.90
42479;DHT22;28110;47.080;9.476;2024-01-07T15:29:24;2.20;99.90
42479;DHT22;28110;47.080;9.476;2024-01-07T15:31:49;2.10;99.90
42479;DHT22;28110;47.080;9.476;2024-01-07T15:34:15;2.10;99.90
42479;DHT22;28110;47.080;9.476;2024-01-07T15:36:40;2.10;99.90
42479;DHT22;28110;47.080;9.476;2024-01-07T15:39:07;2.10;99.90
42479;DHT22;28110;47.080;9.476;2024-01-07T15:41:35;2.10;99.90
42479;DHT22;28110;47.080;9.476;2024-01-07T15:44:00;2.10;99.90